createdAt,value
2022-12-04T00:01:07.002Z,-0.10
2022-12-04T00:03:33.801Z,-0.10
2022-12-04T00:06:08.123Z,-0.10
2022-12-04T00:08:35.315Z,-0.10
2022-12-04T00:11:03.449Z,-0.10
2022-12-04T00:13:30.310Z,-0.10
2022-12-04T00:15:57.130Z,-0.10
2022-12-04T00:18:23.916Z,-0.10
2022-12-04T00:20:50.790Z,-0.10
2022-12-04T00:23:17.536Z,-0.10
2022-12-04T00:25:48.577Z,0.00
2022-12-04T00:28:18.982Z,-0.10
2022-12-04T00:30:45.829Z,0.00
2022-12-04T00:33:13.072Z,0.00
2022-12-04T00:35:40.116Z,0.00
2022-12-04T00:38:07.259Z,-0.10
2022-12-04T00:40:34.218Z,-0.10
2022-12-04T00:43:01.062Z,-0.10
2022-12-04T00:45:28.054Z,-0.10
2022-12-04T00:47:54.903Z,-0.10
2022-12-04T00:50:22.026Z,0.00
2022-12-04T00:52:48.832Z,-0.10
2022-12-04T00:55:15.564Z,-0.10
2022-12-04T00:57:42.393Z,-0.10
2022-12-04T01:00:09.472Z,-0.10
2022-12-04T01:02:36.276Z,-0.10
2022-12-04T01:05:03.189Z,-0.10
2022-12-04T01:07:30.010Z,-0.10
2022-12-04T01:09:57.000Z,-0.10
2022-12-04T01:12:23.895Z,-0.10
2022-12-04T01:14:50.729Z,-0.10
2022-12-04T01:17:17.589Z,-0.10
2022-12-04T01:19:44.685Z,-0.10
2022-12-04T01:22:11.448Z,-0.10
2022-12-04T01:24:38.189Z,-0.20
2022-12-04T01:27:05.069Z,-0.10
2022-12-04T01:29:31.807Z,0.00
2022-12-04T01:31:58.635Z,0.00
2022-12-04T01:34:25.602Z,0.00
2022-12-04T01:36:52.373Z,0.00
2022-12-04T01:39:19.467Z,0.00
2022-12-04T01:41:46.275Z,0.00
2022-12-04T01:44:15.254Z,0.00
2022-12-04T01:46:42.954Z,0.00
2022-12-04T01:49:12.180Z,0.00
2022-12-04T01:51:40.707Z,0.00
2022-12-04T01:54:08.812Z,0.00
2022-12-04T01:56:41.237Z,0.00
2022-12-04T01:59:09.205Z,0.00
2022-12-04T02:01:39.038Z,0.00
2022-12-04T02:04:05.924Z,0.00
2022-12-04T02:06:32.666Z,0.00
2022-12-04T02:08:59.554Z,0.00
2022-12-04T02:11:32.179Z,0.00
2022-12-04T02:14:16.352Z,0.00
2022-12-04T02:17:21.730Z,0.10
2022-12-04T02:20:11.781Z,0.00
2022-12-04T02:22:47.634Z,0.10
2022-12-04T02:25:14.469Z,0.10
2022-12-04T02:27:41.154Z,0.00
2022-12-04T02:30:13.234Z,0.00
2022-12-04T02:32:50.033Z,0.00
2022-12-04T02:35:16.793Z,0.00
2022-12-04T02:37:50.081Z,0.00
2022-12-04T02:40:23.106Z,0.00
2022-12-04T02:42:53.584Z,0.00
2022-12-04T02:45:21.798Z,-0.10
2022-12-04T02:47:48.827Z,-0.10
2022-12-04T02:50:17.353Z,-0.10
2022-12-04T02:52:46.981Z,-0.10
2022-12-04T02:55:16.425Z,-0.10
2022-12-04T02:57:45.330Z,-0.10
2022-12-04T03:00:12.704Z,-0.10
2022-12-04T03:02:45.007Z,-0.10
2022-12-04T03:05:14.883Z,-0.10
2022-12-04T03:07:44.533Z,-0.20
2022-12-04T03:10:17.698Z,-0.10
2022-12-04T03:12:47.518Z,-0.10
2022-12-04T03:15:17.876Z,0.00
2022-12-04T03:17:52.333Z,0.00
2022-12-04T03:20:19.770Z,0.00
2022-12-04T03:22:50.350Z,0.00
2022-12-04T03:25:17.307Z,0.00
2022-12-04T03:27:44.126Z,0.00
2022-12-04T03:30:12.469Z,0.00
2022-12-04T03:32:42.016Z,0.00
2022-12-04T03:35:08.852Z,0.00
2022-12-04T03:37:49.908Z,0.00
2022-12-04T03:40:22.858Z,0.00
2022-12-04T03:42:55.399Z,0.00
2022-12-04T03:45:25.197Z,0.00
2022-12-04T03:47:55.387Z,0.10
2022-12-04T03:50:38.555Z,0.00
2022-12-04T03:53:23.957Z,0.00
2022-12-04T03:55:50.711Z,0.00
2022-12-04T03:58:20.707Z,0.00
2022-12-04T04:00:49.978Z,0.00
2022-12-04T04:03:19.523Z,0.00
2022-12-04T04:05:48.106Z,0.00
2022-12-04T04:08:26.721Z,0.10
2022-12-04T04:10:55.309Z,0.10
2022-12-04T04:13:43.849Z,0.10
2022-12-04T04:16:30.470Z,0.00
2022-12-04T04:19:16.965Z,0.10
2022-12-04T04:22:03.000Z,0.10
2022-12-04T04:24:29.729Z,0.10
2022-12-04T04:26:58.026Z,0.10
2022-12-04T04:29:24.832Z,0.00
2022-12-04T04:31:51.574Z,0.10
2022-12-04T04:34:36.919Z,0.10
2022-12-04T04:37:03.631Z,0.10
2022-12-04T04:39:36.442Z,0.00
2022-12-04T04:42:20.689Z,0.00
2022-12-04T04:44:51.520Z,0.00
2022-12-04T04:47:22.503Z,0.00
2022-12-04T04:49:50.727Z,0.00
2022-12-04T04:52:20.169Z,0.00
2022-12-04T04:54:47.636Z,0.00
2022-12-04T04:57:24.966Z,0.00
2022-12-04T04:59:51.761Z,0.00
2022-12-04T05:02:18.624Z,0.00
2022-12-04T05:04:45.384Z,0.10
2022-12-04T05:07:12.181Z,0.20
2022-12-04T05:09:41.404Z,0.10
2022-12-04T05:12:09.056Z,0.00
2022-12-04T05:14:35.833Z,0.10
2022-12-04T05:17:09.169Z,0.10
2022-12-04T05:19:54.673Z,0.00
2022-12-04T05:22:26.526Z,0.00
2022-12-04T05:24:53.470Z,0.10
2022-12-04T05:27:20.470Z,0.10
2022-12-04T05:29:47.303Z,0.10
2022-12-04T05:32:14.445Z,0.00
2022-12-04T05:34:41.208Z,0.00
2022-12-04T05:37:08.042Z,0.00
2022-12-04T05:39:35.748Z,0.10
2022-12-04T05:42:02.536Z,0.10
2022-12-04T05:44:29.322Z,0.10
2022-12-04T05:46:56.319Z,0.10
2022-12-04T05:49:24.460Z,0.10
2022-12-04T05:51:51.637Z,0.10
2022-12-04T05:54:19.081Z,0.10
2022-12-04T05:56:45.995Z,0.10
2022-12-04T05:59:13.030Z,0.10
2022-12-04T06:01:40.125Z,0.10
2022-12-04T06:04:07.090Z,0.10
2022-12-04T06:06:33.960Z,0.10
2022-12-04T06:09:00.844Z,0.10
2022-12-04T06:11:29.063Z,0.10
2022-12-04T06:13:56.668Z,0.10
2022-12-04T06:16:25.139Z,0.10
2022-12-04T06:18:53.258Z,0.10
2022-12-04T06:21:20.672Z,0.10
2022-12-04T06:23:47.542Z,0.10
2022-12-04T06:26:14.674Z,0.10
2022-12-04T06:28:41.370Z,0.10
2022-12-04T06:31:09.257Z,0.10
2022-12-04T06:33:36.221Z,0.10
2022-12-04T06:36:07.462Z,0.10
2022-12-04T06:38:34.741Z,0.20
2022-12-04T06:41:05.381Z,0.20
2022-12-04T06:43:32.644Z,0.20
2022-12-04T06:46:03.415Z,0.20
2022-12-04T06:48:30.306Z,0.30
2022-12-04T06:50:59.953Z,0.30
2022-12-04T06:53:27.886Z,0.20
2022-12-04T06:55:54.987Z,0.20
2022-12-04T06:58:21.748Z,0.20
2022-12-04T07:00:48.687Z,0.30
2022-12-04T07:03:15.470Z,0.30
2022-12-04T07:05:42.420Z,0.30
2022-12-04T07:08:09.292Z,0.30
2022-12-04T07:10:36.549Z,0.20
2022-12-04T07:13:03.783Z,0.30
2022-12-04T07:15:30.938Z,0.30
2022-12-04T07:17:58.218Z,0.40
2022-12-04T07:20:25.140Z,0.40
2022-12-04T07:22:52.272Z,0.30
2022-12-04T07:25:19.350Z,0.30
2022-12-04T07:27:46.457Z,0.30
2022-12-04T07:30:15.870Z,0.40
2022-12-04T07:32:42.936Z,0.40
2022-12-04T07:35:09.696Z,0.40
2022-12-04T07:37:36.816Z,0.50
2022-12-04T07:40:04.202Z,0.50
2022-12-04T07:42:30.886Z,0.40
2022-12-04T07:44:57.698Z,0.50
2022-12-04T07:47:24.463Z,0.40
2022-12-04T07:49:51.245Z,0.50
2022-12-04T07:52:18.089Z,0.50
2022-12-04T07:54:44.871Z,0.40
2022-12-04T07:57:11.650Z,0.50
2022-12-04T07:59:38.515Z,0.50
2022-12-04T08:02:05.824Z,0.50
2022-12-04T08:04:32.706Z,0.50
2022-12-04T08:06:59.570Z,0.60
2022-12-04T08:09:26.476Z,0.60
2022-12-04T08:11:53.210Z,0.60
2022-12-04T08:14:20.000Z,0.60
2022-12-04T08:16:52.651Z,0.60
2022-12-04T08:19:20.080Z,0.60
2022-12-04T08:21:46.875Z,0.60
2022-12-04T08:24:14.305Z,0.70
2022-12-04T08:26:41.081Z,0.60
2022-12-04T08:29:07.927Z,0.60
2022-12-04T08:31:36.012Z,0.70
2022-12-04T08:34:04.671Z,0.70
2022-12-04T08:36:32.625Z,0.70
2022-12-04T08:39:00.002Z,0.70
2022-12-04T08:41:27.011Z,0.80
2022-12-04T08:43:55.532Z,0.80
2022-12-04T08:46:23.888Z,0.80
2022-12-04T08:48:51.187Z,0.80
2022-12-04T08:51:19.505Z,0.80
2022-12-04T08:53:46.706Z,0.80
2022-12-04T08:56:13.703Z,0.80
2022-12-04T08:58:40.682Z,0.90
2022-12-04T09:01:11.478Z,0.90
2022-12-04T09:03:38.336Z,0.90
2022-12-04T09:06:05.831Z,0.90
2022-12-04T09:08:33.057Z,0.90
2022-12-04T09:11:06.553Z,0.90
2022-12-04T09:13:33.711Z,0.90
2022-12-04T09:16:03.502Z,0.80
2022-12-04T09:18:30.479Z,0.80
2022-12-04T09:20:59.109Z,0.90
2022-12-04T09:23:26.815Z,1.00
2022-12-04T09:25:54.056Z,1.00
2022-12-04T09:28:21.013Z,1.00
2022-12-04T09:31:01.823Z,1.00
2022-12-04T09:33:28.719Z,1.00
2022-12-04T09:35:55.514Z,1.00
2022-12-04T09:38:22.316Z,1.00
2022-12-04T09:41:07.252Z,0.90
2022-12-04T09:43:47.701Z,1.00
2022-12-04T09:46:18.686Z,1.00
2022-12-04T09:48:46.376Z,0.90
2022-12-04T09:51:18.870Z,0.90
2022-12-04T09:53:48.746Z,1.00
2022-12-04T09:56:19.800Z,1.00
2022-12-04T09:58:52.128Z,1.00
2022-12-04T10:01:23.750Z,1.10
2022-12-04T10:03:50.811Z,1.10
2022-12-04T10:06:23.739Z,1.10
2022-12-04T10:09:00.046Z,1.10
2022-12-04T10:11:32.323Z,1.10
2022-12-04T10:14:18.394Z,1.10
2022-12-04T10:17:03.599Z,1.10
2022-12-04T10:19:49.121Z,1.10
2022-12-04T10:22:23.416Z,1.10
2022-12-04T10:24:57.188Z,1.10
2022-12-04T10:27:51.033Z,1.20
2022-12-04T10:30:22.802Z,1.10
2022-12-04T10:32:52.698Z,1.10
2022-12-04T10:35:23.913Z,1.10
2022-12-04T10:37:56.874Z,1.10
2022-12-04T10:40:43.284Z,1.20
2022-12-04T10:43:12.901Z,1.30
2022-12-04T10:45:40.399Z,1.30
2022-12-04T10:48:09.385Z,1.20
2022-12-04T10:50:36.381Z,1.30
2022-12-04T10:53:07.164Z,1.30
2022-12-04T10:55:38.375Z,1.30
2022-12-04T10:58:14.610Z,1.20
2022-12-04T11:00:41.385Z,1.20
2022-12-04T11:03:23.806Z,1.30
2022-12-04T11:05:55.451Z,1.30
2022-12-04T11:08:42.413Z,1.30
2022-12-04T11:11:12.036Z,1.20
2022-12-04T11:13:39.486Z,1.10
2022-12-04T11:16:08.028Z,1.10
2022-12-04T11:18:45.887Z,1.10
2022-12-04T11:21:15.861Z,1.10
2022-12-04T11:23:47.268Z,1.20
2022-12-04T11:26:14.823Z,1.20
2022-12-04T11:28:49.889Z,1.20
2022-12-04T11:31:20.312Z,1.20
2022-12-04T11:33:51.765Z,1.20
2022-12-04T11:36:22.070Z,1.20
2022-12-04T11:38:52.542Z,1.30
2022-12-04T11:41:26.899Z,1.30
2022-12-04T11:43:59.670Z,1.30
2022-12-04T11:46:29.857Z,1.40
2022-12-04T11:48:56.811Z,1.30
2022-12-04T11:51:23.520Z,1.30
2022-12-04T11:53:56.078Z,1.30
2022-12-04T11:56:32.585Z,1.40
2022-12-04T11:59:14.857Z,1.30
2022-12-04T12:02:00.786Z,1.30
2022-12-04T12:04:36.991Z,1.30
2022-12-04T12:07:04.062Z,1.30
2022-12-04T12:09:43.184Z,1.20
2022-12-04T12:12:19.524Z,1.30
2022-12-04T12:14:59.341Z,1.30
2022-12-04T12:17:35.302Z,1.20
2022-12-04T12:20:24.231Z,1.30
2022-12-04T12:23:14.365Z,1.20
2022-12-04T12:25:42.688Z,1.30
2022-12-04T12:28:30.467Z,1.20
2022-12-04T12:31:11.415Z,1.20
2022-12-04T12:33:43.059Z,1.30
2022-12-04T12:36:11.568Z,1.30
2022-12-04T12:38:38.265Z,1.20
2022-12-04T12:41:28.296Z,1.20
2022-12-04T12:43:59.986Z,1.20
2022-12-04T12:46:49.000Z,1.10
2022-12-04T12:49:39.146Z,1.10
2022-12-04T12:52:19.993Z,1.10
2022-12-04T12:55:09.742Z,1.10
2022-12-04T12:57:37.946Z,1.10
2022-12-04T13:00:14.751Z,1.10
2022-12-04T13:02:44.395Z,1.10
2022-12-04T13:05:13.115Z,1.10
2022-12-04T13:07:42.914Z,1.10
2022-12-04T13:10:12.718Z,1.10
2022-12-04T13:12:52.792Z,1.10
2022-12-04T13:15:22.149Z,1.10
2022-12-04T13:17:50.826Z,1.20
2022-12-04T13:20:22.432Z,1.20
2022-12-04T13:23:01.993Z,1.20
2022-12-04T13:25:37.013Z,1.20
2022-12-04T13:28:22.657Z,1.20
2022-12-04T13:31:02.105Z,1.20
2022-12-04T13:33:40.807Z,1.10
2022-12-04T13:36:07.636Z,1.20
2022-12-04T13:38:56.555Z,1.20
2022-12-04T13:41:25.500Z,1.20
2022-12-04T13:43:53.040Z,1.20
2022-12-04T13:46:19.772Z,1.20
2022-12-04T13:48:46.608Z,1.20
2022-12-04T13:51:13.282Z,1.20
2022-12-04T13:53:40.732Z,1.20
2022-12-04T13:56:12.272Z,1.20
2022-12-04T13:58:41.639Z,1.20
2022-12-04T14:01:23.583Z,1.20
2022-12-04T14:03:51.626Z,1.20
2022-12-04T14:06:25.951Z,1.20
2022-12-04T14:09:00.735Z,1.20
2022-12-04T14:11:28.726Z,1.20
2022-12-04T14:13:57.025Z,1.20
2022-12-04T14:16:31.192Z,1.10
2022-12-04T14:18:59.618Z,1.10
2022-12-04T14:21:37.787Z,1.10
2022-12-04T14:24:15.382Z,1.10
2022-12-04T14:27:10.737Z,1.20
2022-12-04T14:29:46.172Z,1.20
2022-12-04T14:32:17.873Z,1.20
2022-12-04T14:34:45.198Z,1.20
2022-12-04T14:37:29.694Z,1.20
2022-12-04T14:39:57.401Z,1.20
2022-12-04T14:42:26.533Z,1.20
2022-12-04T14:44:55.756Z,1.20
2022-12-04T14:47:41.674Z,1.30
2022-12-04T14:50:14.238Z,1.20
2022-12-04T14:52:45.455Z,1.20
2022-12-04T14:55:18.878Z,1.20
2022-12-04T14:58:00.133Z,1.20
2022-12-04T15:00:26.966Z,1.20
2022-12-04T15:02:58.990Z,1.20
2022-12-04T15:05:28.617Z,1.20
2022-12-04T15:07:58.871Z,1.30
2022-12-04T15:10:45.704Z,1.20
2022-12-04T15:13:16.030Z,1.20
2022-12-04T15:15:46.412Z,1.20
2022-12-04T15:18:14.654Z,1.20
2022-12-04T15:20:53.861Z,1.10
2022-12-04T15:23:29.326Z,1.10
2022-12-04T15:25:57.081Z,1.20
2022-12-04T15:28:32.468Z,1.20
2022-12-04T15:31:01.245Z,1.30
2022-12-04T15:33:30.466Z,1.20
2022-12-04T15:35:59.790Z,1.20
2022-12-04T15:38:26.640Z,1.20
2022-12-04T15:40:55.186Z,1.20
2022-12-04T15:43:40.853Z,1.20
2022-12-04T15:46:14.764Z,1.20
2022-12-04T15:48:46.372Z,1.20
2022-12-04T15:51:15.453Z,1.20
2022-12-04T15:53:44.511Z,1.20
2022-12-04T15:56:17.503Z,1.20
2022-12-04T15:58:56.050Z,1.30
2022-12-04T16:01:23.017Z,1.20
2022-12-04T16:03:51.135Z,1.20
2022-12-04T16:06:22.513Z,1.30
2022-12-04T16:08:55.391Z,1.30
2022-12-04T16:11:22.575Z,1.20
2022-12-04T16:13:50.777Z,1.20
2022-12-04T16:16:21.030Z,1.20
2022-12-04T16:18:47.997Z,1.20
2022-12-04T16:21:19.530Z,1.20
2022-12-04T16:23:46.330Z,1.20
2022-12-04T16:26:13.890Z,1.20
2022-12-04T16:28:40.649Z,1.20
2022-12-04T16:31:07.932Z,1.10
2022-12-04T16:33:34.707Z,1.20
2022-12-04T16:36:01.487Z,1.20
2022-12-04T16:38:28.293Z,1.10
2022-12-04T16:40:55.146Z,1.10
2022-12-04T16:43:22.066Z,1.20
2022-12-04T16:45:52.570Z,1.20
2022-12-04T16:48:19.499Z,1.20
2022-12-04T16:50:46.728Z,1.20
2022-12-04T16:53:17.321Z,1.20
2022-12-04T16:55:45.272Z,1.20
2022-12-04T16:58:12.121Z,1.20
2022-12-04T17:00:39.302Z,1.20
2022-12-04T17:03:06.352Z,1.20
2022-12-04T17:05:35.736Z,1.30
2022-12-04T17:08:02.670Z,1.20
2022-12-04T17:10:30.119Z,1.20
2022-12-04T17:12:56.817Z,1.30
2022-12-04T17:15:23.666Z,1.30
2022-12-04T17:17:50.590Z,1.30
2022-12-04T17:20:18.401Z,1.30
2022-12-04T17:22:45.381Z,1.30
2022-12-04T17:25:12.669Z,1.30
2022-12-04T17:27:39.453Z,1.30
2022-12-04T17:30:07.137Z,1.30
2022-12-04T17:32:34.943Z,1.30
2022-12-04T17:35:02.492Z,1.40
2022-12-04T17:37:29.466Z,1.30
2022-12-04T17:39:56.248Z,1.30
2022-12-04T17:42:23.019Z,1.30
2022-12-04T17:44:49.872Z,1.40
2022-12-04T17:47:16.951Z,1.30
2022-12-04T17:49:43.917Z,1.30
2022-12-04T17:52:10.798Z,1.30
2022-12-04T17:54:37.580Z,1.40
2022-12-04T17:57:04.414Z,1.40
2022-12-04T17:59:31.180Z,1.40
2022-12-04T18:01:57.960Z,1.40
2022-12-04T18:04:25.093Z,1.40
2022-12-04T18:06:52.716Z,1.40
2022-12-04T18:09:19.505Z,1.40
2022-12-04T18:11:47.212Z,1.40
2022-12-04T18:14:15.517Z,1.40
2022-12-04T18:16:46.482Z,1.40
2022-12-04T18:19:13.813Z,1.40
2022-12-04T18:21:40.689Z,1.40
2022-12-04T18:24:08.048Z,1.40
2022-12-04T18:26:36.786Z,1.40
2022-12-04T18:29:04.792Z,1.50
2022-12-04T18:31:32.084Z,1.40
2022-12-04T18:33:58.958Z,1.50
2022-12-04T18:36:26.916Z,1.40
2022-12-04T18:38:55.579Z,1.40
2022-12-04T18:41:22.807Z,1.50
2022-12-04T18:43:49.737Z,1.40
2022-12-04T18:46:17.098Z,1.40
2022-12-04T18:48:44.606Z,1.40
2022-12-04T18:51:14.691Z,1.40
2022-12-04T18:53:41.465Z,1.40
2022-12-04T18:56:08.318Z,1.40
2022-12-04T18:58:35.095Z,1.50
2022-12-04T19:01:06.788Z,1.50
2022-12-04T19:03:34.129Z,1.50
2022-12-04T19:06:01.161Z,1.50
2022-12-04T19:08:32.914Z,1.50
2022-12-04T19:11:07.193Z,1.50
2022-12-04T19:13:34.460Z,1.50
2022-12-04T19:16:01.545Z,1.50
2022-12-04T19:18:29.803Z,1.50
2022-12-04T19:20:56.872Z,1.60
2022-12-04T19:23:24.002Z,1.50
2022-12-04T19:25:54.421Z,1.60
2022-12-04T19:28:21.356Z,1.60
2022-12-04T19:30:48.666Z,1.60
2022-12-04T19:33:15.525Z,1.60
2022-12-04T19:35:42.334Z,1.60
2022-12-04T19:38:09.566Z,1.60
2022-12-04T19:40:36.345Z,1.50
2022-12-04T19:43:03.373Z,1.60
2022-12-04T19:45:30.223Z,1.60
2022-12-04T19:47:56.957Z,1.60
2022-12-04T19:50:23.726Z,1.60
2022-12-04T19:52:50.467Z,1.60
2022-12-04T19:55:17.358Z,1.60
2022-12-04T19:57:44.089Z,1.60
2022-12-04T20:00:11.019Z,1.60
2022-12-04T20:02:40.474Z,1.60
2022-12-04T20:05:07.465Z,1.60
2022-12-04T20:07:34.327Z,1.60
2022-12-04T20:10:01.228Z,1.60
2022-12-04T20:12:28.111Z,1.60
2022-12-04T20:14:54.839Z,1.60
2022-12-04T20:17:21.796Z,1.60
2022-12-04T20:19:48.581Z,1.70
2022-12-04T20:22:15.288Z,1.60
2022-12-04T20:24:43.009Z,1.60
2022-12-04T20:27:09.812Z,1.60
2022-12-04T20:29:36.601Z,1.70
2022-12-04T20:32:03.428Z,1.70
2022-12-04T20:34:30.135Z,1.70
2022-12-04T20:36:57.987Z,1.70
2022-12-04T20:39:24.741Z,1.70
2022-12-04T20:41:51.526Z,1.80
2022-12-04T20:44:19.142Z,1.80
2022-12-04T20:46:46.081Z,1.80
2022-12-04T20:49:20.839Z,1.70
2022-12-04T20:51:48.941Z,1.70
2022-12-04T20:54:18.188Z,1.70
2022-12-04T20:56:45.463Z,1.70
2022-12-04T20:59:13.534Z,1.80
2022-12-04T21:01:40.737Z,1.70
2022-12-04T21:04:07.788Z,1.80
2022-12-04T21:06:38.518Z,1.80
2022-12-04T21:09:06.548Z,1.80
2022-12-04T21:11:34.657Z,1.70
2022-12-04T21:14:20.851Z,1.70
2022-12-04T21:16:47.842Z,1.70
2022-12-04T21:19:16.130Z,1.70
2022-12-04T21:21:43.311Z,1.70
2022-12-04T21:24:11.252Z,1.80
2022-12-04T21:26:38.334Z,1.80
2022-12-04T21:29:05.685Z,1.70
2022-12-04T21:31:32.629Z,1.70
2022-12-04T21:34:00.116Z,1.80
2022-12-04T21:36:27.314Z,1.70
2022-12-04T21:38:54.349Z,1.70
2022-12-04T21:41:40.047Z,1.70
2022-12-04T21:44:08.170Z,1.80
2022-12-04T21:46:34.986Z,1.80
2022-12-04T21:49:01.742Z,1.80
2022-12-04T21:51:55.824Z,1.80
2022-12-04T21:54:15.297Z,1.80
2022-12-04T21:56:42.230Z,1.70
2022-12-04T21:59:09.204Z,1.70
2022-12-04T22:01:36.435Z,1.80
2022-12-04T22:04:03.258Z,1.80
2022-12-04T22:06:33.580Z,1.80
2022-12-04T22:09:01.232Z,1.80
2022-12-04T22:11:28.168Z,1.90
2022-12-04T22:13:54.985Z,1.90
2022-12-04T22:16:29.660Z,1.90
2022-12-04T22:18:58.150Z,1.80
2022-12-04T22:21:25.350Z,1.90
2022-12-04T22:23:58.688Z,1.80
2022-12-04T22:26:26.251Z,1.90
2022-12-04T22:28:53.119Z,1.90
2022-12-04T22:31:20.708Z,1.90
2022-12-04T22:33:51.320Z,1.90
2022-12-04T22:36:20.557Z,1.90
2022-12-04T22:39:08.101Z,2.00
2022-12-04T22:41:34.681Z,1.90
2022-12-04T22:44:01.384Z,1.90
2022-12-04T22:46:28.206Z,1.90
2022-12-04T22:48:55.019Z,1.90
2022-12-04T22:51:22.370Z,1.90
2022-12-04T22:53:50.569Z,1.90
2022-12-04T22:56:21.502Z,1.90
2022-12-04T22:58:48.669Z,1.90
2022-12-04T23:01:19.655Z,1.90
2022-12-04T23:03:47.360Z,1.90
2022-12-04T23:06:14.705Z,1.90
2022-12-04T23:08:42.305Z,1.90
2022-12-04T23:11:10.532Z,1.90
2022-12-04T23:13:37.292Z,1.90
2022-12-04T23:16:09.265Z,1.90
2022-12-04T23:18:36.691Z,1.90
2022-12-04T23:21:08.040Z,1.90
2022-12-04T23:23:35.635Z,1.90
2022-12-04T23:26:06.458Z,1.90
2022-12-04T23:28:33.233Z,1.90
2022-12-04T23:31:00.186Z,1.90
2022-12-04T23:33:27.806Z,1.90
2022-12-04T23:35:55.439Z,1.90
2022-12-04T23:38:22.909Z,1.90
2022-12-04T23:40:49.733Z,1.90
2022-12-04T23:43:16.552Z,1.90
2022-12-04T23:45:43.683Z,1.90
2022-12-04T23:48:10.506Z,2.10
2022-12-04T23:50:37.321Z,1.90
2022-12-04T23:53:04.016Z,1.90
2022-12-04T23:55:34.377Z,1.80
2022-12-04T23:58:02.197Z,1.90
